createdAt,value
2017-04-22T00:00:20.269Z,6.85
2017-04-22T00:01:21.001Z,7.15
2017-04-22T00:02:21.684Z,6.75
2017-04-22T00:03:21.625Z,5.95
2017-04-22T00:04:22.269Z,6.80
2017-04-22T00:05:22.217Z,6.23
2017-04-22T00:06:22.213Z,6.03
2017-04-22T00:07:22.116Z,6.02
2017-04-22T00:08:22.009Z,5.30
2017-04-22T00:09:21.950Z,5.98
2017-04-22T00:10:21.861Z,6.02
2017-04-22T00:11:21.844Z,6.12
2017-04-22T00:12:21.791Z,6.22
2017-04-22T00:13:22.465Z,5.40
2017-04-22T00:14:22.381Z,6.20
2017-04-22T00:15:22.324Z,6.27
2017-04-22T00:16:23.021Z,7.55
2017-04-22T00:17:22.980Z,5.48
2017-04-22T00:18:22.924Z,5.73
2017-04-22T00:19:22.885Z,6.43
2017-04-22T00:20:22.795Z,6.15
2017-04-22T00:21:22.773Z,5.63
2017-04-22T00:22:23.537Z,6.03
2017-04-22T00:23:23.766Z,5.55
2017-04-22T00:24:23.714Z,5.75
2017-04-22T00:25:23.657Z,5.42
2017-04-22T00:26:23.620Z,5.43
2017-04-22T00:27:23.555Z,6.87
2017-04-22T00:28:23.476Z,5.93
2017-04-22T00:29:23.456Z,5.68
2017-04-22T00:30:24.116Z,5.72
2017-04-22T00:31:24.016Z,5.65
2017-04-22T00:32:23.925Z,5.78
2017-04-22T00:33:23.832Z,5.80
2017-04-22T00:34:23.768Z,6.27
2017-04-22T00:35:23.831Z,5.67
2017-04-22T00:36:23.717Z,4.95
2017-04-22T00:37:23.776Z,4.75
2017-04-22T00:38:23.670Z,5.73
2017-04-22T00:39:23.609Z,4.53
2017-04-22T00:40:24.295Z,4.93
2017-04-22T00:41:24.226Z,5.52
2017-04-22T00:42:24.136Z,5.30
2017-04-22T00:43:24.060Z,5.32
2017-04-22T00:44:24.705Z,5.08
2017-04-22T00:45:24.830Z,5.27
2017-04-22T00:46:24.748Z,5.88
2017-04-22T00:47:24.684Z,5.78
2017-04-22T00:48:25.564Z,5.25
2017-04-22T00:49:25.445Z,5.28
2017-04-22T00:50:25.403Z,5.67
2017-04-22T00:51:25.332Z,5.22
2017-04-22T00:52:25.977Z,5.38
2017-04-22T00:53:25.920Z,5.73
2017-04-22T00:54:25.858Z,6.48
2017-04-22T00:55:25.796Z,6.40
2017-04-22T00:56:25.720Z,5.28
2017-04-22T00:57:25.609Z,6.95
2017-04-22T00:58:25.525Z,6.28
2017-04-22T00:59:25.432Z,4.82
2017-04-22T01:00:25.438Z,5.83
2017-04-22T01:01:25.423Z,5.05
2017-04-22T01:02:25.461Z,5.70
2017-04-22T01:03:25.360Z,6.35
2017-04-22T01:04:25.301Z,5.63
2017-04-22T01:05:25.240Z,6.52
2017-04-22T01:06:25.176Z,5.98
2017-04-22T01:07:25.127Z,6.13
2017-04-22T01:08:25.049Z,5.30
2017-04-22T01:09:24.967Z,6.02
2017-04-22T01:10:24.902Z,5.75
2017-04-22T01:11:24.937Z,5.50
2017-04-22T01:12:24.840Z,5.60
2017-04-22T01:13:24.744Z,6.13
2017-04-22T01:14:24.641Z,6.50
2017-04-22T01:15:24.584Z,6.23
2017-04-22T01:16:25.266Z,6.35
2017-04-22T01:17:25.148Z,6.35
2017-04-22T01:18:25.080Z,5.92
2017-04-22T01:19:25.030Z,6.93
2017-04-22T01:20:24.956Z,6.48
2017-04-22T01:21:24.932Z,5.85
2017-04-22T01:22:24.899Z,6.62
2017-04-22T01:23:24.928Z,6.60
2017-04-22T01:24:25.602Z,7.50
2017-04-22T01:25:25.535Z,7.87
2017-04-22T01:26:25.505Z,6.80
2017-04-22T01:27:25.456Z,6.53
2017-04-22T01:28:25.832Z,6.17
2017-04-22T01:29:25.746Z,7.50
2017-04-22T01:30:25.717Z,6.10
2017-04-22T01:31:25.681Z,6.08
2017-04-22T01:32:25.594Z,6.22
2017-04-22T01:33:25.670Z,6.48
2017-04-22T01:34:25.629Z,5.85
2017-04-22T01:35:26.340Z,5.68
2017-04-22T01:36:26.229Z,7.17
2017-04-22T01:37:26.165Z,6.68
2017-04-22T01:38:26.906Z,6.08
2017-04-22T01:39:26.861Z,6.10
2017-04-22T01:40:26.771Z,6.18
2017-04-22T01:41:26.728Z,6.82
2017-04-22T01:42:26.651Z,7.00
2017-04-22T01:43:26.576Z,5.17
2017-04-22T01:44:26.551Z,6.10
2017-04-22T01:45:26.457Z,6.02
2017-04-22T01:46:26.520Z,5.55
2017-04-22T01:47:27.198Z,5.75
2017-04-22T01:48:27.096Z,6.98
2017-04-22T01:49:27.034Z,6.67
2017-04-22T01:50:26.933Z,5.25
2017-04-22T01:51:26.889Z,6.12
2017-04-22T01:52:26.825Z,6.35
2017-04-22T01:53:26.733Z,6.12
2017-04-22T01:54:26.701Z,6.53
2017-04-22T01:55:26.607Z,5.83
2017-04-22T01:56:26.548Z,5.60
2017-04-22T01:57:26.528Z,6.37
2017-04-22T01:58:26.498Z,5.87
2017-04-22T01:59:26.425Z,6.68
2017-04-22T02:00:26.387Z,5.93
2017-04-22T02:01:26.310Z,7.07
2017-04-22T02:02:26.342Z,6.10
2017-04-22T02:03:27.053Z,5.92
2017-04-22T02:04:27.724Z,6.68
2017-04-22T02:05:27.652Z,5.72
2017-04-22T02:06:27.648Z,5.65
2017-04-22T02:07:27.637Z,5.70
2017-04-22T02:08:27.566Z,5.63
2017-04-22T02:09:27.522Z,6.52
2017-04-22T02:10:27.418Z,5.22
2017-04-22T02:11:28.096Z,6.47
2017-04-22T02:12:28.149Z,6.28
2017-04-22T02:13:28.071Z,5.98
2017-04-22T02:14:28.022Z,6.27
2017-04-22T02:15:27.943Z,6.65
2017-04-22T02:16:27.890Z,6.80
2017-04-22T02:17:27.804Z,6.65
2017-04-22T02:18:27.920Z,6.28
2017-04-22T02:19:27.968Z,6.12
2017-04-22T02:20:27.884Z,5.45
2017-04-22T02:21:28.567Z,5.33
2017-04-22T02:22:28.542Z,6.87
2017-04-22T02:23:28.473Z,6.12
2017-04-22T02:24:28.481Z,5.92
2017-04-22T02:25:28.415Z,5.95
2017-04-22T02:26:28.345Z,5.78
2017-04-22T02:27:29.002Z,6.07
2017-04-22T02:28:28.940Z,6.03
2017-04-22T02:29:28.872Z,6.27
2017-04-22T02:30:29.553Z,6.75
2017-04-22T02:31:29.490Z,5.98
2017-04-22T02:32:29.420Z,6.30
2017-04-22T02:33:29.366Z,5.33
2017-04-22T02:34:29.328Z,5.78
2017-04-22T02:35:29.270Z,7.57
2017-04-22T02:36:29.217Z,6.68
2017-04-22T02:37:29.876Z,6.22
2017-04-22T02:38:29.829Z,7.18
2017-04-22T02:39:29.860Z,5.75
2017-04-22T02:40:30.514Z,6.57
2017-04-22T02:41:30.429Z,6.93
2017-04-22T02:42:30.497Z,6.15
2017-04-22T02:43:31.129Z,6.50
2017-04-22T02:44:31.052Z,7.40
2017-04-22T02:45:30.981Z,6.55
2017-04-22T02:46:31.676Z,6.67
2017-04-22T02:47:31.621Z,5.85
2017-04-22T02:48:31.867Z,6.78
2017-04-22T02:49:32.548Z,5.85
2017-04-22T02:50:32.468Z,7.33
2017-04-22T02:51:32.428Z,5.85
2017-04-22T02:52:32.392Z,5.82
2017-04-22T02:53:32.321Z,6.57
2017-04-22T02:54:33.005Z,6.70
2017-04-22T02:55:39.322Z,7.47
2017-04-22T02:56:39.217Z,5.67
2017-04-22T02:57:39.209Z,5.90
2017-04-22T02:58:39.177Z,6.65
2017-04-22T02:59:39.108Z,6.08
2017-04-22T03:00:39.840Z,6.67
2017-04-22T03:01:39.748Z,6.60
2017-04-22T03:02:39.757Z,6.17
2017-04-22T03:03:39.672Z,6.90
2017-04-22T03:04:39.638Z,7.25
2017-04-22T03:05:39.591Z,6.48
2017-04-22T03:06:39.539Z,6.78
2017-04-22T03:07:39.511Z,5.60
2017-04-22T03:08:39.447Z,7.75
2017-04-22T03:09:39.375Z,6.63
2017-04-22T03:10:40.042Z,6.13
2017-04-22T03:11:39.972Z,7.08
2017-04-22T03:12:39.916Z,6.40
2017-04-22T03:13:40.563Z,6.17
2017-04-22T03:14:40.490Z,6.40
2017-04-22T03:15:40.416Z,6.63
2017-04-22T03:16:40.324Z,6.40
2017-04-22T03:17:40.284Z,6.63
2017-04-22T03:18:40.220Z,6.52
2017-04-22T03:19:40.149Z,6.77
2017-04-22T03:20:40.069Z,6.37
2017-04-22T03:21:40.721Z,5.97
2017-04-22T03:22:40.655Z,6.40
2017-04-22T03:23:40.633Z,6.58
2017-04-22T03:24:40.557Z,6.22
2017-04-22T03:25:40.443Z,6.07
2017-04-22T03:26:40.403Z,6.83
2017-04-22T03:27:41.135Z,6.28
2017-04-22T03:28:41.470Z,7.13
2017-04-22T03:29:42.178Z,7.10
2017-04-22T03:30:42.934Z,6.53
2017-04-22T03:31:42.905Z,7.50
2017-04-22T03:32:43.648Z,6.45
2017-04-22T03:33:44.321Z,7.13
2017-04-22T03:34:45.003Z,6.35
2017-04-22T03:35:44.926Z,6.58
2017-04-22T03:36:44.902Z,7.47
2017-04-22T03:37:45.600Z,6.77
2017-04-22T03:38:45.506Z,6.23
2017-04-22T03:39:45.425Z,6.50
2017-04-22T03:40:46.100Z,6.28
2017-04-22T03:41:46.012Z,7.45
2017-04-22T03:42:46.115Z,6.53
2017-04-22T03:43:46.027Z,7.05
2017-04-22T03:44:45.964Z,7.45
2017-04-22T03:45:45.864Z,7.10
2017-04-22T03:46:46.557Z,7.62
2017-04-22T03:47:46.604Z,7.13
2017-04-22T03:48:47.246Z,7.50
2017-04-22T03:49:47.172Z,6.72
2017-04-22T03:50:47.125Z,7.80
2017-04-22T03:51:47.052Z,7.13
2017-04-22T03:52:47.721Z,7.13
2017-04-22T03:53:47.636Z,7.27
2017-04-22T03:54:47.549Z,7.13
2017-04-22T03:55:47.485Z,6.85
2017-04-22T03:56:48.186Z,8.15
2017-04-22T03:57:48.144Z,8.05
2017-04-22T03:58:48.127Z,6.37
2017-04-22T03:59:48.793Z,7.03
2017-04-22T04:00:49.489Z,8.10
2017-04-22T04:01:49.396Z,7.18
2017-04-22T04:02:49.319Z,7.85
2017-04-22T04:03:49.395Z,7.92
2017-04-22T04:04:49.344Z,8.45
2017-04-22T04:05:49.254Z,7.35
2017-04-22T04:06:49.190Z,8.60
2017-04-22T04:07:49.856Z,6.67
2017-04-22T04:08:49.850Z,6.82
2017-04-22T04:09:49.785Z,7.53
2017-04-22T04:10:50.458Z,8.03
2017-04-22T04:11:51.132Z,8.28
2017-04-22T04:12:51.061Z,7.02
2017-04-22T04:13:53.858Z,8.03
2017-04-22T04:14:54.522Z,7.60
2017-04-22T04:15:54.436Z,8.28
2017-04-22T04:16:56.162Z,8.08
2017-04-22T04:17:56.115Z,8.38
2017-04-22T04:18:56.040Z,7.72
2017-04-22T04:19:56.703Z,8.13
2017-04-22T04:20:56.698Z,8.47
2017-04-22T04:21:56.645Z,7.17
2017-04-22T04:22:56.597Z,8.08
2017-04-22T04:23:56.730Z,8.95
2017-04-22T04:24:56.638Z,8.77
2017-04-22T04:25:56.565Z,9.03
2017-04-22T04:26:56.520Z,8.80
2017-04-22T04:27:56.446Z,7.80
2017-04-22T04:28:56.393Z,7.18
2017-04-22T04:29:56.309Z,8.65
2017-04-22T04:30:56.996Z,7.87
2017-04-22T04:31:56.923Z,7.83
2017-04-22T04:32:56.867Z,7.15
2017-04-22T04:33:56.841Z,6.92
2017-04-22T04:34:56.784Z,7.48
2017-04-22T04:35:56.709Z,7.82
2017-04-22T04:36:56.661Z,7.38
2017-04-22T04:37:57.316Z,9.60
2017-04-22T04:38:58.312Z,8.42
2017-04-22T04:39:58.260Z,8.03
2017-04-22T04:40:58.213Z,7.97
2017-04-22T04:41:58.137Z,8.05
2017-04-22T04:42:58.836Z,8.20
2017-04-22T04:43:58.753Z,8.62
2017-04-22T04:44:58.697Z,8.23
2017-04-22T04:45:58.589Z,8.35
2017-04-22T04:46:58.513Z,7.10
2017-04-22T04:47:58.444Z,8.23
2017-04-22T04:48:58.366Z,8.27
2017-04-22T04:49:58.329Z,7.10
2017-04-22T04:50:58.255Z,7.82
2017-04-22T04:51:58.228Z,7.67
2017-04-22T04:52:58.131Z,7.95
2017-04-22T04:53:58.041Z,7.68
2017-04-22T04:54:58.005Z,8.53
2017-04-22T04:55:57.958Z,8.32
2017-04-22T04:56:57.877Z,8.22
2017-04-22T04:57:57.787Z,7.90
2017-04-22T04:58:57.694Z,8.25
2017-04-22T04:59:57.643Z,7.32
2017-04-22T05:00:58.292Z,7.87
2017-04-22T05:01:58.280Z,8.68
2017-04-22T05:02:58.916Z,7.97
2017-04-22T05:03:58.854Z,8.27
2017-04-22T05:04:58.779Z,8.25
2017-04-22T05:05:58.709Z,9.07
2017-04-22T05:06:59.431Z,8.30
2017-04-22T05:08:00.150Z,8.25
2017-04-22T05:09:00.099Z,7.90
2017-04-22T05:10:00.061Z,8.80
2017-04-22T05:11:00.708Z,8.37
2017-04-22T05:12:00.644Z,8.72
2017-04-22T05:13:00.529Z,8.57
2017-04-22T05:14:00.454Z,8.57
2017-04-22T05:15:00.371Z,8.35
2017-04-22T05:16:00.287Z,8.43
2017-04-22T05:17:00.200Z,8.27
2017-04-22T05:18:00.166Z,8.50
2017-04-22T05:19:00.086Z,9.00
2017-04-22T05:19:59.963Z,9.43
2017-04-22T05:20:59.856Z,8.77
2017-04-22T05:21:59.792Z,9.33
2017-04-22T05:22:59.766Z,8.92
2017-04-22T05:23:59.683Z,9.93
2017-04-22T05:24:59.629Z,8.43
2017-04-22T05:25:59.537Z,9.00
2017-04-22T05:26:59.466Z,8.88
2017-04-22T05:28:00.172Z,8.92
2017-04-22T05:29:00.087Z,10.50
2017-04-22T05:30:00.723Z,8.65
2017-04-22T05:31:00.666Z,8.52
2017-04-22T05:32:00.573Z,8.15
2017-04-22T05:33:00.628Z,9.58
2017-04-22T05:34:01.292Z,8.55
2017-04-22T05:35:01.220Z,9.62
2017-04-22T05:36:01.137Z,7.07
2017-04-22T05:37:01.085Z,9.30
2017-04-22T05:38:01.148Z,7.98
2017-04-22T05:39:01.071Z,8.80
2017-04-22T05:40:00.986Z,9.00
2017-04-22T05:41:01.649Z,9.57
2017-04-22T05:42:01.588Z,9.40
2017-04-22T05:43:01.555Z,9.55
2017-04-22T05:44:01.495Z,10.28
2017-04-22T05:45:01.411Z,8.97
2017-04-22T05:46:01.368Z,9.80
2017-04-22T05:47:01.289Z,9.03
2017-04-22T05:48:01.233Z,9.90
2017-04-22T05:49:01.135Z,9.55
2017-04-22T05:50:01.099Z,9.75
2017-04-22T05:51:01.082Z,8.60
2017-04-22T05:52:00.997Z,10.27
2017-04-22T05:53:01.000Z,9.43
2017-04-22T05:54:01.040Z,9.38
2017-04-22T05:55:00.976Z,9.95
2017-04-22T05:56:00.959Z,8.98
2017-04-22T05:57:00.895Z,8.02
2017-04-22T05:58:00.888Z,9.87
2017-04-22T05:59:00.813Z,8.85
2017-04-22T06:00:01.545Z,8.85
2017-04-22T06:01:02.236Z,9.27
2017-04-22T06:02:02.158Z,8.05
2017-04-22T06:03:02.834Z,8.27
2017-04-22T06:04:02.750Z,8.62
2017-04-22T06:05:02.845Z,9.42
2017-04-22T06:06:02.819Z,8.60
2017-04-22T06:07:02.777Z,9.42
2017-04-22T06:08:02.713Z,9.53
2017-04-22T06:09:03.517Z,9.60
2017-04-22T06:10:03.493Z,8.90
2017-04-22T06:11:03.398Z,8.43
2017-04-22T06:12:03.345Z,8.55
2017-04-22T06:13:03.274Z,8.02
2017-04-22T06:14:03.205Z,9.40
2017-04-22T06:15:03.176Z,9.58
2017-04-22T06:16:03.893Z,8.47
2017-04-22T06:17:04.586Z,10.20
2017-04-22T06:18:04.518Z,9.37
2017-04-22T06:19:05.217Z,8.43
2017-04-22T06:20:05.152Z,9.30
2017-04-22T06:21:05.825Z,8.00
2017-04-22T06:22:05.755Z,8.63
2017-04-22T06:23:05.705Z,6.50
2017-04-22T06:24:05.657Z,7.82
2017-04-22T06:25:05.601Z,8.52
2017-04-22T06:26:05.542Z,8.18
2017-04-22T06:27:05.761Z,7.05
2017-04-22T06:28:05.933Z,6.38
2017-04-22T06:29:06.954Z,6.15
2017-04-22T06:30:07.777Z,7.03
2017-04-22T06:31:08.713Z,7.98
2017-04-22T06:32:08.815Z,8.17
2017-04-22T06:33:09.504Z,7.82
2017-04-22T06:34:09.447Z,6.80
2017-04-22T06:35:10.438Z,8.50
2017-04-22T06:36:10.715Z,7.58
2017-04-22T06:37:10.611Z,7.55
2017-04-22T06:38:10.709Z,7.92
2017-04-22T06:39:10.749Z,8.52
2017-04-22T06:40:10.776Z,7.47
2017-04-22T06:41:10.758Z,7.55
2017-04-22T06:42:10.692Z,7.28
2017-04-22T06:43:10.604Z,7.50
2017-04-22T06:44:10.580Z,6.02
2017-04-22T06:45:10.649Z,7.73
2017-04-22T06:46:11.398Z,6.83
2017-04-22T06:47:11.359Z,6.98
2017-04-22T06:48:11.341Z,6.05
2017-04-22T06:49:11.334Z,6.80
2017-04-22T06:50:11.324Z,7.05
2017-04-22T06:51:11.354Z,6.78
2017-04-22T06:52:11.320Z,6.65
2017-04-22T06:53:11.966Z,6.52
2017-04-22T06:54:11.935Z,6.63
2017-04-22T06:55:12.251Z,6.25
2017-04-22T06:56:12.824Z,6.98
2017-04-22T06:57:12.893Z,7.38
2017-04-22T06:58:12.921Z,7.18
2017-04-22T06:59:12.932Z,6.43
2017-04-22T07:00:12.924Z,6.40
2017-04-22T07:01:12.940Z,7.40
2017-04-22T07:02:12.920Z,6.40
2017-04-22T07:03:13.957Z,7.65
2017-04-22T07:04:13.923Z,5.98
2017-04-22T07:05:14.095Z,7.40
2017-04-22T07:06:13.880Z,6.33
2017-04-22T07:07:13.841Z,6.30
2017-04-22T07:08:13.800Z,6.32
2017-04-22T07:09:14.237Z,6.67
2017-04-22T07:10:14.296Z,6.90
2017-04-22T07:11:15.047Z,7.55
2017-04-22T07:12:15.070Z,6.53
2017-04-22T07:13:15.057Z,6.38
2017-04-22T07:14:15.168Z,6.52
2017-04-22T07:15:15.180Z,6.50
2017-04-22T07:16:15.085Z,7.20
2017-04-22T07:17:15.165Z,6.98
2017-04-22T07:18:15.824Z,6.75
2017-04-22T07:19:15.892Z,6.85
2017-04-22T07:20:16.869Z,6.35
2017-04-22T07:21:16.827Z,7.30
2017-04-22T07:22:17.504Z,6.97
2017-04-22T07:23:17.401Z,7.00
2017-04-22T07:24:17.513Z,6.00
2017-04-22T07:25:17.400Z,7.25
2017-04-22T07:26:17.332Z,7.10
2017-04-22T07:27:17.261Z,7.70
2017-04-22T07:28:17.191Z,6.77
2017-04-22T07:29:17.863Z,7.80
2017-04-22T07:30:17.834Z,7.50
2017-04-22T07:31:17.744Z,8.05
2017-04-22T07:32:17.655Z,7.22
2017-04-22T07:33:17.592Z,7.75
2017-04-22T07:34:18.293Z,8.45
2017-04-22T07:35:18.229Z,7.02
2017-04-22T07:36:18.150Z,7.18
2017-04-22T07:37:18.073Z,8.05
2017-04-22T07:38:18.025Z,8.15
2017-04-22T07:39:17.925Z,7.67
2017-04-22T07:40:17.943Z,7.35
2017-04-22T07:41:17.908Z,8.22
2017-04-22T07:42:17.824Z,7.28
2017-04-22T07:43:17.741Z,8.20
2017-04-22T07:44:17.672Z,8.90
2017-04-22T07:45:17.653Z,7.27
2017-04-22T07:46:17.573Z,7.33
2017-04-22T07:47:17.494Z,8.02
2017-04-22T07:48:17.438Z,8.08
2017-04-22T07:49:17.356Z,8.68
2017-04-22T07:50:17.397Z,8.33
2017-04-22T07:51:17.316Z,7.97
2017-04-22T07:52:17.244Z,7.37
2017-04-22T07:53:17.980Z,8.22
2017-04-22T07:54:18.773Z,7.02
2017-04-22T07:55:18.755Z,8.15
2017-04-22T07:56:18.695Z,7.82
2017-04-22T07:57:18.638Z,7.17
2017-04-22T07:58:18.582Z,7.72
2017-04-22T07:59:18.568Z,7.82
2017-04-22T08:00:18.585Z,7.28
2017-04-22T08:01:18.572Z,8.20
2017-04-22T08:02:18.496Z,7.32
2017-04-22T08:03:18.471Z,7.93
2017-04-22T08:04:18.365Z,8.32
2017-04-22T08:05:19.044Z,8.08
2017-04-22T08:06:19.131Z,8.43
2017-04-22T08:07:19.065Z,7.62
2017-04-22T08:08:18.996Z,7.65
2017-04-22T08:09:19.666Z,7.50
2017-04-22T08:10:19.597Z,8.37
2017-04-22T08:11:19.516Z,8.05
2017-04-22T08:12:19.421Z,7.53
2017-04-22T08:13:19.345Z,6.93
2017-04-22T08:14:19.273Z,7.75
2017-04-22T08:15:19.184Z,9.02
2017-04-22T08:16:19.307Z,7.55
2017-04-22T08:17:19.220Z,8.07
2017-04-22T08:18:19.168Z,7.58
2017-04-22T08:19:19.863Z,7.98
2017-04-22T08:20:19.792Z,7.80
2017-04-22T08:21:20.585Z,8.20
2017-04-22T08:22:20.476Z,8.43
2017-04-22T08:23:20.374Z,8.90
2017-04-22T08:24:20.266Z,7.87
2017-04-22T08:25:20.185Z,9.78
2017-04-22T08:26:20.131Z,8.57
2017-04-22T08:27:20.087Z,8.75
2017-04-22T08:28:20.017Z,8.38
2017-04-22T08:29:20.683Z,7.77
2017-04-22T08:30:21.360Z,7.57
2017-04-22T08:31:21.274Z,8.37
2017-04-22T08:32:21.227Z,7.82
2017-04-22T08:33:21.156Z,8.17
2017-04-22T08:34:21.045Z,8.52
2017-04-22T08:35:20.936Z,7.53
2017-04-22T08:36:20.878Z,8.13
2017-04-22T08:37:20.868Z,8.87
2017-04-22T08:38:20.777Z,8.07
2017-04-22T08:39:20.728Z,8.58
2017-04-22T08:40:20.640Z,8.53
2017-04-22T08:41:21.293Z,8.50
2017-04-22T08:42:21.279Z,8.20
2017-04-22T08:43:21.937Z,8.28
2017-04-22T08:44:21.941Z,7.92
2017-04-22T08:45:21.840Z,7.87
2017-04-22T08:46:21.757Z,8.42
2017-04-22T08:47:21.692Z,7.58
2017-04-22T08:48:21.622Z,8.35
2017-04-22T08:49:22.321Z,7.45
2017-04-22T08:50:22.275Z,8.42
2017-04-22T08:51:22.190Z,8.30
2017-04-22T08:52:22.257Z,8.55
2017-04-22T08:53:22.197Z,8.13
2017-04-22T08:54:22.138Z,8.37
2017-04-22T08:55:22.080Z,8.27
2017-04-22T08:56:21.993Z,8.07
2017-04-22T08:57:21.961Z,9.30
2017-04-22T08:58:21.872Z,8.22
2017-04-22T08:59:21.806Z,7.38
2017-04-22T09:00:21.733Z,8.22
2017-04-22T09:01:21.647Z,8.05
2017-04-22T09:02:22.541Z,9.43
2017-04-22T09:03:22.448Z,8.80
2017-04-22T09:04:22.376Z,8.60
2017-04-22T09:05:22.287Z,7.57
2017-04-22T09:06:22.190Z,8.00
2017-04-22T09:07:22.133Z,8.42
2017-04-22T09:08:22.044Z,8.25
2017-04-22T09:09:21.956Z,8.95
2017-04-22T09:10:21.895Z,7.62
2017-04-22T09:11:21.840Z,9.33
2017-04-22T09:12:21.748Z,8.75
2017-04-22T09:13:21.676Z,8.60
2017-04-22T09:14:21.649Z,9.08
2017-04-22T09:15:22.314Z,7.95
2017-04-22T09:16:22.980Z,9.60
2017-04-22T09:17:22.878Z,9.27
2017-04-22T09:18:22.828Z,9.12
2017-04-22T09:19:22.757Z,9.33
2017-04-22T09:20:23.401Z,8.90
2017-04-22T09:21:23.345Z,8.75
2017-04-22T09:22:23.313Z,9.22
2017-04-22T09:23:23.243Z,7.65
2017-04-22T09:24:23.193Z,8.30
2017-04-22T09:25:23.852Z,9.03
2017-04-22T09:26:23.992Z,8.40
2017-04-22T09:27:23.897Z,9.07
2017-04-22T09:28:23.804Z,8.88
2017-04-22T09:29:23.885Z,9.55
2017-04-22T09:30:23.995Z,8.80
2017-04-22T09:31:23.949Z,9.67
2017-04-22T09:32:24.124Z,9.30
2017-04-22T09:33:24.076Z,9.38
2017-04-22T09:34:24.772Z,8.82
2017-04-22T09:35:24.668Z,8.87
2017-04-22T09:36:24.618Z,8.65
2017-04-22T09:37:25.444Z,9.23
2017-04-22T09:38:26.088Z,10.17
2017-04-22T09:39:26.015Z,8.62
2017-04-22T09:40:26.022Z,8.90
2017-04-22T09:41:25.945Z,8.57
2017-04-22T09:42:26.722Z,8.43
2017-04-22T09:43:26.705Z,8.22
2017-04-22T09:44:27.403Z,8.52
2017-04-22T09:45:27.348Z,8.23
2017-04-22T09:46:27.338Z,9.23
2017-04-22T09:47:28.226Z,8.50
2017-04-22T09:48:28.261Z,8.17
2017-04-22T09:49:28.241Z,9.18
2017-04-22T09:50:28.250Z,9.63
2017-04-22T09:51:28.160Z,8.62
2017-04-22T09:52:28.230Z,9.45
2017-04-22T09:53:28.206Z,8.73
2017-04-22T09:54:28.872Z,9.35
2017-04-22T09:55:28.796Z,8.02
2017-04-22T09:56:28.753Z,8.30
2017-04-22T09:57:29.441Z,7.93
2017-04-22T09:58:29.375Z,8.85
2017-04-22T09:59:30.028Z,9.23
2017-04-22T10:00:30.028Z,8.55
2017-04-22T10:01:30.057Z,8.35
2017-04-22T10:02:29.978Z,7.88
2017-04-22T10:03:29.989Z,9.08
2017-04-22T10:04:29.924Z,8.83
2017-04-22T10:05:30.656Z,8.08
2017-04-22T10:06:31.298Z,7.92
2017-04-22T10:07:31.239Z,9.28
2017-04-22T10:08:31.277Z,8.05
2017-04-22T10:09:31.341Z,7.98
2017-04-22T10:10:31.570Z,8.73
2017-04-22T10:11:31.479Z,7.03
2017-04-22T10:12:31.433Z,8.83
2017-04-22T10:13:31.376Z,7.93
2017-04-22T10:14:31.469Z,8.23
2017-04-22T10:15:31.421Z,8.75
2017-04-22T10:16:31.428Z,8.68
2017-04-22T10:17:32.101Z,8.12
2017-04-22T10:18:32.508Z,9.75
2017-04-22T10:19:32.807Z,9.03
2017-04-22T10:20:32.752Z,9.20
2017-04-22T10:21:32.733Z,8.75
2017-04-22T10:22:32.726Z,8.90
2017-04-22T10:23:32.717Z,8.38
2017-04-22T10:24:32.811Z,8.00
2017-04-22T10:25:32.709Z,9.98
2017-04-22T10:26:32.652Z,7.67
2017-04-22T10:27:32.581Z,8.22
2017-04-22T10:28:32.565Z,9.50
2017-04-22T10:29:32.480Z,8.45
2017-04-22T10:30:32.421Z,9.63
2017-04-22T10:31:32.344Z,7.95
2017-04-22T10:32:32.425Z,8.15
2017-04-22T10:33:32.637Z,6.98
2017-04-22T10:34:33.298Z,8.12
2017-04-22T10:35:33.948Z,7.55
2017-04-22T10:36:34.185Z,8.53
2017-04-22T10:37:34.917Z,8.82
2017-04-22T10:38:34.943Z,7.90
2017-04-22T10:39:34.854Z,8.07
2017-04-22T10:40:35.565Z,9.87
2017-04-22T10:41:35.520Z,8.28
2017-04-22T10:42:35.433Z,6.70
2017-04-22T10:43:35.567Z,7.92
2017-04-22T10:44:35.503Z,8.15
2017-04-22T10:45:35.417Z,7.75
2017-04-22T10:46:36.080Z,7.25
2017-04-22T10:47:36.017Z,7.50
2017-04-22T10:48:36.801Z,8.38
2017-04-22T10:49:36.864Z,7.47
2017-04-22T10:50:36.772Z,7.43
2017-04-22T10:51:36.788Z,7.62
2017-04-22T10:52:36.693Z,7.33
2017-04-22T10:53:37.460Z,8.37
2017-04-22T10:54:37.399Z,6.87
2017-04-22T10:55:37.337Z,7.30
2017-04-22T10:56:38.018Z,8.25
2017-04-22T10:57:38.021Z,8.70
2017-04-22T10:58:37.913Z,8.38
2017-04-22T10:59:37.959Z,8.37
2017-04-22T11:00:37.937Z,8.35
2017-04-22T11:01:37.852Z,7.45
2017-04-22T11:02:37.794Z,7.73
2017-04-22T11:03:37.794Z,8.57
2017-04-22T11:04:37.737Z,9.05
2017-04-22T11:05:37.665Z,8.38
2017-04-22T11:06:37.645Z,7.37
2017-04-22T11:07:37.589Z,7.95
2017-04-22T11:08:37.581Z,8.35
2017-04-22T11:09:37.572Z,7.67
2017-04-22T11:10:37.589Z,7.55
2017-04-22T11:11:37.555Z,7.92
2017-04-22T11:12:37.548Z,7.87
2017-04-22T11:13:38.244Z,8.37
2017-04-22T11:14:38.175Z,8.25
2017-04-22T11:15:38.901Z,8.00
2017-04-22T11:16:39.666Z,7.90
2017-04-22T11:17:39.661Z,9.10
2017-04-22T11:18:39.662Z,9.05
2017-04-22T11:19:39.588Z,8.23
2017-04-22T11:20:39.512Z,7.82
2017-04-22T11:21:39.439Z,7.48
2017-04-22T11:22:39.588Z,7.60
2017-04-22T11:23:39.529Z,7.55
2017-04-22T11:24:39.436Z,7.88
2017-04-22T11:25:39.400Z,7.88
2017-04-22T11:26:39.370Z,8.50
2017-04-22T11:27:39.298Z,8.15
2017-04-22T11:28:39.962Z,7.98
2017-04-22T11:29:40.054Z,6.43
2017-04-22T11:30:40.045Z,8.00
2017-04-22T11:31:39.973Z,8.15
2017-04-22T11:32:39.884Z,8.22
2017-04-22T11:33:39.804Z,6.98
2017-04-22T11:34:39.890Z,7.22
2017-04-22T11:35:39.862Z,7.38
2017-04-22T11:36:39.802Z,6.95
2017-04-22T11:37:39.769Z,7.42
2017-04-22T11:38:40.449Z,7.17
2017-04-22T11:39:40.492Z,7.60
2017-04-22T11:40:40.897Z,7.50
2017-04-22T11:41:40.875Z,7.55
2017-04-22T11:42:40.833Z,7.43
2017-04-22T11:43:41.508Z,7.15
2017-04-22T11:44:42.103Z,7.97
2017-04-22T11:45:42.068Z,7.00
2017-04-22T11:46:42.091Z,7.02
2017-04-22T11:47:42.861Z,6.78
2017-04-22T11:48:42.832Z,7.05
2017-04-22T11:49:43.799Z,9.77
2017-04-22T11:50:43.741Z,7.87
2017-04-22T11:51:43.789Z,7.83
2017-04-22T11:52:43.727Z,13.77
2017-04-22T11:53:43.674Z,10.17
2017-04-22T11:54:44.396Z,8.58
2017-04-22T11:55:45.069Z,9.12
2017-04-22T11:56:44.988Z,20.18
2017-04-22T11:57:44.908Z,9.93
2017-04-22T11:58:44.816Z,8.78
2017-04-22T11:59:44.800Z,8.94
2017-04-22T12:00:44.790Z,8.80
2017-04-22T12:01:44.725Z,8.40
2017-04-22T12:02:44.676Z,11.13
2017-04-22T12:03:44.608Z,8.54
2017-04-22T12:04:44.560Z,7.87
2017-04-22T12:05:44.488Z,7.84
2017-04-22T12:06:44.403Z,9.06
2017-04-22T12:07:44.312Z,8.60
2017-04-22T12:08:44.227Z,7.70
2017-04-22T12:09:44.188Z,7.77
2017-04-22T12:10:44.249Z,10.33
2017-04-22T12:11:45.120Z,7.30
2017-04-22T12:12:45.800Z,8.50
2017-04-22T12:13:45.718Z,8.28
2017-04-22T12:14:45.655Z,9.10
2017-04-22T12:15:46.535Z,7.03
2017-04-22T12:16:46.449Z,8.97
2017-04-22T12:17:46.370Z,8.08
2017-04-22T12:18:46.295Z,8.58
2017-04-22T12:19:46.181Z,8.20
2017-04-22T12:20:46.260Z,7.82
2017-04-22T12:21:46.953Z,8.20
2017-04-22T12:22:47.200Z,7.03
2017-04-22T12:23:47.144Z,7.03
2017-04-22T12:24:47.086Z,6.84
2017-04-22T12:25:47.147Z,7.47
2017-04-22T12:26:47.055Z,7.71
2017-04-22T12:27:46.973Z,7.13
2017-04-22T12:28:46.895Z,6.97
2017-04-22T12:29:46.817Z,8.59
2017-04-22T12:30:46.708Z,7.66
2017-04-22T12:31:46.671Z,8.43
2017-04-22T12:32:46.629Z,8.73
2017-04-22T12:33:46.506Z,8.34
2017-04-22T12:34:47.793Z,7.24
2017-04-22T12:35:47.781Z,6.57
2017-04-22T12:36:47.764Z,8.03
2017-04-22T12:37:48.399Z,8.06
2017-04-22T12:38:48.329Z,8.94
2017-04-22T12:39:48.236Z,7.53
2017-04-22T12:40:48.968Z,8.10
2017-04-22T12:41:48.986Z,7.83
2017-04-22T12:42:48.929Z,7.09
2017-04-22T12:43:49.608Z,8.59
2017-04-22T12:44:49.565Z,7.91
2017-04-22T12:45:49.525Z,9.60
2017-04-22T12:46:49.575Z,7.30
2017-04-22T12:47:50.237Z,6.91
2017-04-22T12:48:50.218Z,8.53
2017-04-22T12:49:50.165Z,8.06
2017-04-22T12:50:50.088Z,8.81
2017-04-22T12:51:50.066Z,8.40
2017-04-22T12:52:50.005Z,9.13
2017-04-22T12:53:50.662Z,8.81
2017-04-22T12:54:50.600Z,7.60
2017-04-22T12:55:50.509Z,8.21
2017-04-22T12:56:51.181Z,8.29
2017-04-22T12:57:51.149Z,8.00
2017-04-22T12:58:51.104Z,7.86
2017-04-22T12:59:51.005Z,7.21
2017-04-22T13:00:50.986Z,7.50
2017-04-22T13:01:51.645Z,7.76
2017-04-22T13:02:51.573Z,7.77
2017-04-22T13:03:52.237Z,8.79
2017-04-22T13:04:52.911Z,8.33
2017-04-22T13:05:52.864Z,7.89
2017-04-22T13:06:53.832Z,7.13
2017-04-22T13:07:53.721Z,6.94
2017-04-22T13:08:53.621Z,7.27
2017-04-22T13:09:53.572Z,8.24
2017-04-22T13:10:53.480Z,8.84
2017-04-22T13:11:54.176Z,7.53
2017-04-22T13:12:54.078Z,7.30
2017-04-22T13:13:54.000Z,7.04
2017-04-22T13:14:53.945Z,7.59
2017-04-22T13:15:54.592Z,8.09
2017-04-22T13:16:54.562Z,8.07
2017-04-22T13:17:54.476Z,6.47
2017-04-22T13:18:55.144Z,7.37
2017-04-22T13:19:55.077Z,6.80